createdAt,value
2023-02-24T00:01:42.000Z,7.46
2023-02-24T00:04:13.128Z,7.49
2023-02-24T00:06:51.999Z,7.41
2023-02-24T00:09:22.377Z,7.33
2023-02-24T00:11:55.776Z,7.28
2023-02-24T00:20:21.565Z,7.38
2023-02-24T00:25:35.410Z,7.26
2023-02-24T00:28:03.216Z,7.09
2023-02-24T00:30:32.823Z,7.15
2023-02-24T00:33:04.092Z,7.26
2023-02-24T00:35:31.998Z,7.13
2023-02-24T00:38:01.103Z,7.12
2023-02-24T00:40:30.432Z,7.20
2023-02-24T00:42:58.040Z,7.21
2023-02-24T00:45:25.549Z,7.13
2023-02-24T00:47:53.104Z,7.22
2023-02-24T00:50:24.736Z,6.99
2023-02-24T00:52:55.259Z,7.20
2023-02-24T00:55:24.361Z,7.16
2023-02-24T00:57:54.635Z,7.00
2023-02-24T01:00:23.385Z,7.04
2023-02-24T01:02:50.891Z,7.19
2023-02-24T01:05:18.380Z,7.12
2023-02-24T01:07:46.038Z,7.20
2023-02-24T01:10:13.495Z,7.27
2023-02-24T01:12:50.610Z,7.11
2023-02-24T01:15:20.369Z,7.21
2023-02-24T01:17:47.933Z,7.05
2023-02-24T01:20:18.761Z,7.00
2023-02-24T01:22:48.783Z,6.94
2023-02-24T01:25:16.421Z,7.08
2023-02-24T01:27:45.382Z,7.05
2023-02-24T01:30:15.928Z,7.08
2023-02-24T01:32:44.579Z,6.96
2023-02-24T01:35:14.348Z,7.00
2023-02-24T01:37:43.177Z,7.12
2023-02-24T01:40:18.563Z,7.08
2023-02-24T01:42:49.371Z,7.13
2023-02-24T01:45:22.732Z,7.01
2023-02-24T01:47:50.484Z,7.19
2023-02-24T01:50:21.602Z,7.12
2023-02-24T01:52:51.286Z,7.01
2023-02-24T01:55:23.204Z,6.99
2023-02-24T01:57:53.730Z,7.17
2023-02-24T02:00:45.193Z,7.12
2023-02-24T02:03:19.692Z,7.11
2023-02-24T02:05:48.595Z,7.03
2023-02-24T02:08:17.446Z,7.09
2023-02-24T02:10:45.373Z,7.20
2023-02-24T02:13:20.898Z,7.01
2023-02-24T02:15:56.781Z,6.94
2023-02-24T02:18:32.198Z,7.12
2023-02-24T02:21:30.996Z,7.01
2023-02-24T02:24:05.427Z,6.94
2023-02-24T02:26:54.771Z,6.99
2023-02-24T02:29:51.443Z,6.89
2023-02-24T02:32:52.461Z,7.01
2023-02-24T02:35:23.740Z,7.11
2023-02-24T02:37:56.435Z,6.97
2023-02-24T02:40:27.663Z,6.81
2023-02-24T02:42:59.669Z,7.00
2023-02-24T02:45:30.541Z,6.82
2023-02-24T02:48:03.102Z,6.96
2023-02-24T02:50:36.400Z,6.79
2023-02-24T02:53:06.306Z,6.96
2023-02-24T02:55:37.596Z,6.78
2023-02-24T02:58:09.126Z,6.74
2023-02-24T03:00:42.162Z,6.84
2023-02-24T03:03:12.996Z,6.95
2023-02-24T03:05:47.245Z,6.77
2023-02-24T03:08:17.096Z,6.80
2023-02-24T03:10:51.078Z,6.81
2023-02-24T03:13:20.263Z,6.66
2023-02-24T03:15:48.714Z,6.71
2023-02-24T03:18:20.017Z,6.99
2023-02-24T03:20:51.742Z,6.75
2023-02-24T03:23:21.677Z,6.65
2023-02-24T03:25:53.376Z,6.76
2023-02-24T03:28:23.822Z,6.97
2023-02-24T03:30:57.958Z,7.01
2023-02-24T03:33:31.423Z,6.97
2023-02-24T03:36:02.066Z,6.77
2023-02-24T03:38:30.977Z,6.57
2023-02-24T03:40:59.179Z,6.90
2023-02-24T03:43:29.730Z,6.77
2023-02-24T03:45:58.724Z,6.87
2023-02-24T03:48:27.204Z,6.96
2023-02-24T03:50:55.040Z,6.80
2023-02-24T03:53:40.129Z,6.66
2023-02-24T03:56:16.879Z,6.77
2023-02-24T03:58:54.864Z,6.89
2023-02-24T04:01:27.913Z,6.78
2023-02-24T04:04:01.905Z,6.72
2023-02-24T04:06:35.392Z,6.51
2023-02-24T04:09:08.971Z,6.73
2023-02-24T04:11:42.778Z,6.67
2023-02-24T04:14:14.026Z,6.55
2023-02-24T04:16:45.781Z,6.51
2023-02-24T04:19:16.537Z,6.57
2023-02-24T04:21:45.520Z,6.59
2023-02-24T04:24:16.100Z,6.39
2023-02-24T04:26:44.714Z,6.49
2023-02-24T04:29:17.735Z,6.23
2023-02-24T04:31:47.041Z,6.40
2023-02-24T04:34:20.119Z,6.24
2023-02-24T04:36:49.568Z,6.25
2023-02-24T04:39:20.184Z,6.23
2023-02-24T04:41:49.423Z,6.38
2023-02-24T04:44:18.868Z,6.30
2023-02-24T04:46:46.991Z,6.46
2023-02-24T04:49:15.018Z,6.39
2023-02-24T04:51:43.386Z,6.40
2023-02-24T04:54:11.214Z,6.35
2023-02-24T04:56:42.589Z,6.17
2023-02-24T04:59:10.382Z,6.25
2023-02-24T05:01:40.861Z,6.43
2023-02-24T05:04:09.004Z,6.36
2023-02-24T05:06:40.692Z,6.56
2023-02-24T05:09:14.199Z,6.31
2023-02-24T05:11:49.124Z,6.34
2023-02-24T05:14:18.480Z,6.52
2023-02-24T05:16:47.765Z,6.50
2023-02-24T05:19:34.407Z,6.35
2023-02-24T05:22:03.401Z,6.39
2023-02-24T05:24:32.111Z,6.34
2023-02-24T05:27:03.566Z,6.33
2023-02-24T05:29:36.172Z,6.34
2023-02-24T05:32:05.789Z,6.25
2023-02-24T05:34:34.482Z,6.47
2023-02-24T05:37:07.472Z,6.47
2023-02-24T05:39:35.012Z,6.13
2023-02-24T05:42:07.104Z,6.23
2023-02-24T05:44:36.246Z,6.34
2023-02-24T05:47:08.334Z,6.16
2023-02-24T05:49:38.902Z,6.29
2023-02-24T05:52:09.527Z,6.27
2023-02-24T05:54:40.410Z,6.26
2023-02-24T05:57:11.983Z,6.14
2023-02-24T05:59:40.023Z,6.14
2023-02-24T06:02:12.137Z,6.01
2023-02-24T06:04:46.536Z,6.23
2023-02-24T06:07:19.449Z,6.08
2023-02-24T06:09:50.462Z,6.13
2023-02-24T06:12:20.378Z,6.02
2023-02-24T06:14:48.001Z,6.07
2023-02-24T06:17:17.134Z,6.06
2023-02-24T06:19:45.083Z,6.09
2023-02-24T06:22:14.586Z,6.14
2023-02-24T06:24:44.366Z,5.98
2023-02-24T06:27:17.512Z,6.22
2023-02-24T06:29:49.800Z,6.08
2023-02-24T06:32:20.451Z,5.96
2023-02-24T06:34:50.301Z,6.04
2023-02-24T06:37:18.383Z,6.00
2023-02-24T06:39:46.289Z,6.03
2023-02-24T06:42:16.187Z,6.05
2023-02-24T06:44:44.053Z,6.35
2023-02-24T06:47:14.735Z,6.25
2023-02-24T06:49:42.592Z,6.21
2023-02-24T06:52:10.950Z,6.09
2023-02-24T06:54:38.494Z,6.11
2023-02-24T06:57:05.913Z,5.90
2023-02-24T06:59:34.392Z,5.79
2023-02-24T07:02:03.426Z,5.94
2023-02-24T07:04:43.490Z,6.14
2023-02-24T07:07:14.044Z,6.07
2023-02-24T07:09:43.713Z,6.05
2023-02-24T07:12:12.625Z,5.97
2023-02-24T07:14:40.930Z,6.04
2023-02-24T07:17:08.659Z,6.07
2023-02-24T07:19:38.468Z,6.15
2023-02-24T07:22:06.085Z,6.04
2023-02-24T07:24:36.808Z,6.05
2023-02-24T07:27:06.410Z,5.91
2023-02-24T07:29:34.975Z,5.78
2023-02-24T07:32:05.562Z,5.95
2023-02-24T07:34:40.662Z,6.12
2023-02-24T07:37:10.014Z,5.97
2023-02-24T07:39:39.329Z,5.93
2023-02-24T07:42:12.331Z,5.86
2023-02-24T07:44:39.861Z,5.96
2023-02-24T07:47:08.742Z,5.94
2023-02-24T07:49:36.667Z,6.05
2023-02-24T07:52:08.012Z,5.97
2023-02-24T07:54:39.192Z,5.96
2023-02-24T07:57:13.530Z,6.08
2023-02-24T07:59:47.434Z,5.86
2023-02-24T08:02:15.459Z,5.67
2023-02-24T08:04:49.817Z,6.06
2023-02-24T08:07:17.714Z,5.87
2023-02-24T08:10:03.737Z,5.64
2023-02-24T08:12:31.157Z,5.69
2023-02-24T08:15:00.235Z,5.63
2023-02-24T08:17:28.633Z,5.94
2023-02-24T08:20:21.903Z,5.92
2023-02-24T08:22:52.373Z,5.61
2023-02-24T08:25:24.820Z,5.65
2023-02-24T08:28:08.013Z,5.63
2023-02-24T08:30:39.956Z,5.47
2023-02-24T08:33:10.048Z,5.36
2023-02-24T08:35:44.570Z,5.46
2023-02-24T08:38:15.370Z,5.26
2023-02-24T08:40:54.358Z,5.41
2023-02-24T08:43:34.750Z,5.39
2023-02-24T08:46:05.880Z,5.50
2023-02-24T08:48:38.240Z,5.22
2023-02-24T08:51:09.436Z,5.16
2023-02-24T08:53:40.667Z,5.43
2023-02-24T08:56:11.688Z,5.20
2023-02-24T08:58:46.817Z,5.20
2023-02-24T09:01:24.159Z,5.21
2023-02-24T09:03:54.905Z,5.22
2023-02-24T09:06:26.296Z,5.13
2023-02-24T09:09:17.190Z,5.32
2023-02-24T09:11:46.850Z,5.38
2023-02-24T09:14:26.822Z,5.22
2023-02-24T09:17:06.858Z,5.17
2023-02-24T09:19:56.748Z,5.03
2023-02-24T09:22:57.088Z,4.95
2023-02-24T09:25:33.161Z,4.79
2023-02-24T09:28:09.028Z,5.03
2023-02-24T09:30:38.398Z,4.99
2023-02-24T09:33:17.803Z,4.81
2023-02-24T09:36:00.556Z,4.98
2023-02-24T09:38:57.870Z,5.07
2023-02-24T09:41:33.672Z,5.13
2023-02-24T09:44:07.478Z,4.99
2023-02-24T09:46:40.326Z,5.07
2023-02-24T09:49:17.277Z,4.89
2023-02-24T09:51:45.137Z,4.99
2023-02-24T09:54:15.711Z,4.78
2023-02-24T09:56:50.184Z,4.95
2023-02-24T09:59:26.295Z,4.99
2023-02-24T10:02:02.204Z,4.87
2023-02-24T10:04:49.176Z,4.96
2023-02-24T10:07:18.387Z,4.85
2023-02-24T10:09:50.609Z,4.91
2023-02-24T10:12:24.099Z,5.01
2023-02-24T10:15:16.487Z,5.07
2023-02-24T10:17:48.280Z,4.94
2023-02-24T10:20:30.977Z,5.11
2023-02-24T10:23:02.673Z,4.94
2023-02-24T10:25:41.585Z,5.05
2023-02-24T10:28:20.142Z,5.04
2023-02-24T10:31:03.736Z,5.04
2023-02-24T10:33:38.806Z,5.04
2023-02-24T10:36:09.318Z,5.15
2023-02-24T10:38:38.076Z,5.25
2023-02-24T10:41:07.188Z,5.08
2023-02-24T10:43:45.438Z,5.11
2023-02-24T10:46:39.980Z,5.13
2023-02-24T10:49:11.815Z,5.15
2023-02-24T10:51:41.347Z,5.14
2023-02-24T10:54:30.599Z,5.26
2023-02-24T10:57:07.900Z,5.25
2023-02-24T10:59:58.573Z,5.11
2023-02-24T11:02:33.000Z,5.04
2023-02-24T11:05:26.705Z,5.15
2023-02-24T11:08:08.033Z,5.31
2023-02-24T11:10:53.091Z,5.17
2023-02-24T11:13:39.194Z,5.07
2023-02-24T11:16:26.832Z,5.12
2023-02-24T11:18:56.588Z,5.24
2023-02-24T11:21:24.916Z,5.32
2023-02-24T11:23:54.768Z,5.00
2023-02-24T11:26:25.899Z,5.12
2023-02-24T11:29:19.876Z,5.20
2023-02-24T11:31:58.512Z,5.22
2023-02-24T11:34:33.335Z,5.34
2023-02-24T11:37:09.139Z,5.31
2023-02-24T11:39:48.595Z,5.23
2023-02-24T11:42:17.812Z,5.32
2023-02-24T11:44:52.805Z,5.31
2023-02-24T11:47:24.465Z,5.38
2023-02-24T11:49:56.980Z,5.08
2023-02-24T11:52:31.634Z,5.34
2023-02-24T11:55:03.828Z,5.49
2023-02-24T11:57:35.424Z,5.42
2023-02-24T12:00:13.127Z,5.38
2023-02-24T12:02:48.048Z,5.30
2023-02-24T12:05:19.604Z,5.36
2023-02-24T12:07:50.323Z,5.45
2023-02-24T12:10:21.114Z,5.27
2023-02-24T12:12:53.890Z,5.40
2023-02-24T12:15:25.088Z,5.59
2023-02-24T12:17:59.130Z,5.57
2023-02-24T12:20:31.253Z,5.52
2023-02-24T12:23:02.416Z,5.61
2023-02-24T12:25:32.487Z,5.56
2023-02-24T12:28:10.880Z,5.60
2023-02-24T12:30:49.877Z,5.59
2023-02-24T12:33:28.982Z,5.63
2023-02-24T12:36:04.885Z,5.68
2023-02-24T12:38:46.305Z,5.56
2023-02-24T12:41:26.228Z,5.51
2023-02-24T12:43:57.525Z,5.32
2023-02-24T12:46:27.002Z,5.41
2023-02-24T12:49:21.123Z,5.43
2023-02-24T12:51:57.148Z,5.52
2023-02-24T12:54:29.867Z,5.55
2023-02-24T12:57:01.512Z,5.51
2023-02-24T12:59:31.525Z,5.53
2023-02-24T13:02:01.359Z,5.57
2023-02-24T13:04:38.226Z,5.48
2023-02-24T13:07:20.676Z,5.60
2023-02-24T13:09:52.420Z,5.56
2023-02-24T13:12:27.159Z,5.43
2023-02-24T13:14:54.962Z,5.56
2023-02-24T13:17:24.281Z,5.65
2023-02-24T13:19:53.713Z,5.79
2023-02-24T13:22:29.008Z,5.68
2023-02-24T13:24:59.584Z,5.80
2023-02-24T13:27:28.840Z,5.64
2023-02-24T13:29:57.986Z,5.73
2023-02-24T13:32:29.605Z,5.68
2023-02-24T13:34:57.797Z,5.75
2023-02-24T13:37:37.047Z,5.68
2023-02-24T13:40:23.440Z,5.87
2023-02-24T13:42:58.638Z,5.75
2023-02-24T13:45:29.098Z,5.75
2023-02-24T13:48:17.598Z,5.66
2023-02-24T13:50:56.494Z,5.71
2023-02-24T13:53:37.654Z,5.85
2023-02-24T13:56:15.048Z,5.88
2023-02-24T13:58:54.746Z,6.09
2023-02-24T14:01:22.789Z,6.08
2023-02-24T14:04:06.229Z,5.89
2023-02-24T14:06:34.077Z,5.99
2023-02-24T14:09:04.853Z,6.04
2023-02-24T14:11:33.769Z,6.02
2023-02-24T14:14:01.429Z,5.98
2023-02-24T14:16:32.588Z,6.04
2023-02-24T14:19:02.233Z,6.05
2023-02-24T14:21:31.368Z,5.98
2023-02-24T14:24:00.273Z,6.12
2023-02-24T14:26:29.759Z,6.21
2023-02-24T14:29:01.530Z,6.12
2023-02-24T14:31:30.112Z,6.08
2023-02-24T14:33:59.957Z,6.17
2023-02-24T14:36:30.082Z,6.25
2023-02-24T14:39:08.026Z,6.15
2023-02-24T14:41:37.082Z,6.22
2023-02-24T14:44:16.829Z,6.06
2023-02-24T14:46:48.705Z,6.10
2023-02-24T14:49:20.088Z,6.14
2023-02-24T14:51:50.896Z,6.21
2023-02-24T14:54:22.192Z,6.21
2023-02-24T14:56:51.210Z,6.34
2023-02-24T14:59:22.775Z,6.18
2023-02-24T15:01:51.331Z,6.22
2023-02-24T15:04:27.435Z,6.26
2023-02-24T15:06:55.202Z,6.22
2023-02-24T15:09:25.204Z,6.25
2023-02-24T15:11:56.179Z,6.34
2023-02-24T15:14:26.175Z,6.23
2023-02-24T15:16:55.710Z,6.17
2023-02-24T15:19:27.362Z,6.28
2023-02-24T15:21:55.177Z,6.40
2023-02-24T15:24:26.880Z,6.41
2023-02-24T15:26:58.176Z,6.31
2023-02-24T15:29:27.759Z,6.46
2023-02-24T15:31:56.653Z,6.43
2023-02-24T15:34:25.870Z,6.42
2023-02-24T15:36:56.376Z,6.46
2023-02-24T15:39:26.189Z,6.54
2023-02-24T15:42:07.684Z,6.55
2023-02-24T15:44:37.095Z,6.50
2023-02-24T15:47:20.793Z,6.45
2023-02-24T15:49:48.330Z,6.58
2023-02-24T15:52:16.826Z,6.56
2023-02-24T15:54:44.298Z,6.47
2023-02-24T15:57:17.893Z,6.46
2023-02-24T15:59:45.876Z,6.48
2023-02-24T16:02:15.955Z,6.50
2023-02-24T16:04:43.335Z,6.49
2023-02-24T16:07:12.574Z,6.49
2023-02-24T16:09:41.239Z,6.52
2023-02-24T16:12:12.045Z,6.56
2023-02-24T16:14:41.174Z,6.47
2023-02-24T16:17:10.744Z,6.57
2023-02-24T16:19:38.540Z,6.64
2023-02-24T16:22:06.064Z,6.61
2023-02-24T16:24:33.627Z,6.63
2023-02-24T16:27:01.201Z,6.63
2023-02-24T16:29:29.049Z,6.64
2023-02-24T16:31:58.219Z,6.63
2023-02-24T16:34:26.037Z,6.71
2023-02-24T16:36:53.703Z,6.64
2023-02-24T16:39:21.597Z,6.65
2023-02-24T16:41:49.504Z,6.67
2023-02-24T16:44:17.354Z,6.73
2023-02-24T16:46:47.812Z,6.67
2023-02-24T16:49:19.972Z,6.76
2023-02-24T16:51:47.671Z,6.73
2023-02-24T16:54:15.735Z,6.68
2023-02-24T16:56:43.171Z,6.73
2023-02-24T16:59:10.599Z,6.72
2023-02-24T17:01:38.233Z,6.57
2023-02-24T17:04:09.588Z,6.65
2023-02-24T17:06:38.463Z,6.74
2023-02-24T17:09:05.851Z,6.68
2023-02-24T17:11:34.160Z,6.70
2023-02-24T17:14:03.099Z,6.81
2023-02-24T17:16:30.614Z,6.88
2023-02-24T17:18:58.263Z,6.88
2023-02-24T17:21:25.847Z,6.91
2023-02-24T17:23:54.756Z,6.80
2023-02-24T17:26:22.575Z,6.79
2023-02-24T17:28:50.175Z,6.77
2023-02-24T17:31:17.708Z,6.71
2023-02-24T17:33:45.209Z,6.78
2023-02-24T17:36:12.789Z,6.62
2023-02-24T17:38:40.414Z,6.73
2023-02-24T17:41:10.900Z,6.64
2023-02-24T17:43:38.531Z,6.64
2023-02-24T17:46:07.429Z,6.60
2023-02-24T17:48:35.212Z,6.57
2023-02-24T17:51:03.066Z,6.70
2023-02-24T17:53:31.171Z,6.60
2023-02-24T17:56:04.074Z,6.67
2023-02-24T17:58:34.042Z,6.59
2023-02-24T18:01:02.767Z,6.62
2023-02-24T18:03:31.159Z,6.62
2023-02-24T18:06:00.526Z,6.70
2023-02-24T18:08:28.182Z,6.64
2023-02-24T18:10:56.674Z,6.70
2023-02-24T18:13:24.340Z,6.56
2023-02-24T18:15:53.459Z,6.56
2023-02-24T18:18:21.442Z,6.51
2023-02-24T18:20:49.066Z,6.55
2023-02-24T18:23:16.679Z,6.61
2023-02-24T18:25:44.671Z,6.46
2023-02-24T18:28:12.299Z,6.47
2023-02-24T18:30:40.917Z,6.54
2023-02-24T18:33:10.215Z,6.46
2023-02-24T18:35:38.908Z,6.44
2023-02-24T18:38:06.625Z,6.45
2023-02-24T18:40:34.248Z,6.47
2023-02-24T18:43:01.853Z,6.49
2023-02-24T18:45:29.548Z,6.51
2023-02-24T18:47:57.169Z,6.60
2023-02-24T18:50:26.231Z,6.48
2023-02-24T18:52:54.664Z,6.47
2023-02-24T18:55:22.783Z,6.39
2023-02-24T18:57:50.349Z,6.39
2023-02-24T19:00:19.067Z,6.40
2023-02-24T19:02:47.597Z,6.45
2023-02-24T19:05:37.905Z,6.29
2023-02-24T19:08:07.950Z,6.40
2023-02-24T19:10:40.417Z,6.46
2023-02-24T19:13:08.426Z,6.44
2023-02-24T19:15:36.457Z,6.44
2023-02-24T19:18:04.975Z,6.58
2023-02-24T19:20:34.913Z,6.41
2023-02-24T19:23:05.764Z,6.42
2023-02-24T19:25:36.959Z,6.38
2023-02-24T19:28:05.107Z,6.33
2023-02-24T19:31:41.556Z,6.38
2023-02-24T19:34:13.016Z,6.26
2023-02-24T19:36:41.103Z,6.37
2023-02-24T19:39:10.823Z,6.44
2023-02-24T19:41:40.139Z,6.33
2023-02-24T19:44:08.465Z,6.36
2023-02-24T19:46:36.599Z,6.24
2023-02-24T19:49:05.433Z,6.25
2023-02-24T19:51:33.395Z,6.55
2023-02-24T19:54:03.120Z,6.26
2023-02-24T19:56:33.959Z,6.26
2023-02-24T19:59:04.340Z,6.38
2023-02-24T20:01:32.222Z,6.28
2023-02-24T20:04:04.851Z,6.42
2023-02-24T20:06:35.824Z,6.41
2023-02-24T20:09:06.563Z,6.40
2023-02-24T20:11:36.513Z,6.25
2023-02-24T20:14:06.246Z,6.50
2023-02-24T20:16:34.701Z,6.45
2023-02-24T20:19:03.088Z,6.46
2023-02-24T20:21:31.642Z,6.39
2023-02-24T20:24:00.741Z,6.39
2023-02-24T20:26:29.185Z,6.31
2023-02-24T20:28:58.347Z,6.36
2023-02-24T20:31:27.251Z,6.26
2023-02-24T20:33:56.419Z,6.42
2023-02-24T20:36:26.345Z,6.55
2023-02-24T20:38:55.597Z,6.53
2023-02-24T20:41:24.687Z,6.30
2023-02-24T20:43:52.609Z,6.36
2023-02-24T20:46:24.898Z,6.36
2023-02-24T20:48:57.057Z,6.44
2023-02-24T20:51:24.534Z,6.38
2023-02-24T20:53:57.815Z,6.40
2023-02-24T20:56:26.190Z,6.44
2023-02-24T20:58:55.169Z,6.36
2023-02-24T21:01:23.121Z,6.47
2023-02-24T21:03:51.597Z,6.45
2023-02-24T21:06:20.634Z,6.40
2023-02-24T21:08:48.180Z,6.45
2023-02-24T21:11:16.701Z,6.49
2023-02-24T21:13:46.367Z,6.48
2023-02-24T21:16:15.681Z,6.46
2023-02-24T21:18:45.111Z,6.42
2023-02-24T21:21:15.053Z,6.44
2023-02-24T21:23:44.498Z,6.53
2023-02-24T21:26:12.569Z,6.46
2023-02-24T21:28:41.337Z,6.32
2023-02-24T21:31:09.709Z,6.55
2023-02-24T21:33:37.734Z,6.56
2023-02-24T21:36:07.104Z,6.42
2023-02-24T21:38:36.286Z,6.46
2023-02-24T21:41:08.241Z,6.29
2023-02-24T21:43:38.030Z,6.26
2023-02-24T21:46:09.353Z,6.46
2023-02-24T21:48:40.303Z,6.33
2023-02-24T21:51:12.394Z,6.47
2023-02-24T21:53:49.172Z,6.45
2023-02-24T21:56:29.354Z,6.26
2023-02-24T21:59:06.923Z,6.30
2023-02-24T22:01:40.441Z,6.42
2023-02-24T22:04:13.677Z,6.32
2023-02-24T22:06:44.799Z,6.28
2023-02-24T22:09:15.077Z,6.09
2023-02-24T22:11:44.258Z,6.16
2023-02-24T22:14:13.622Z,6.26
2023-02-24T22:16:43.098Z,6.17
2023-02-24T22:19:13.142Z,6.23
2023-02-24T22:21:43.031Z,6.05
2023-02-24T22:24:13.867Z,6.30
2023-02-24T22:30:17.146Z,6.06
2023-02-24T22:45:29.428Z,5.95
2023-02-24T22:47:59.696Z,5.94
2023-02-24T22:50:27.676Z,5.94
2023-02-24T22:52:59.132Z,5.89
2023-02-24T22:58:22.672Z,5.60
2023-02-24T23:00:54.785Z,5.75
2023-02-24T23:03:27.790Z,5.62
2023-02-24T23:05:56.383Z,5.71
2023-02-24T23:08:27.215Z,5.48
2023-02-24T23:10:55.940Z,5.69
2023-02-24T23:13:24.173Z,5.70
2023-02-24T23:15:56.726Z,5.64
2023-02-24T23:18:26.018Z,5.71
2023-02-24T23:26:44.905Z,5.71
2023-02-24T23:38:42.283Z,5.71
2023-02-24T23:41:11.460Z,5.83
2023-02-24T23:43:39.238Z,5.58
2023-02-24T23:46:09.400Z,5.72
2023-02-24T23:48:37.498Z,5.69
2023-02-24T23:51:09.484Z,5.79
2023-02-24T23:53:40.027Z,5.53
2023-02-24T23:56:11.277Z,5.70
2023-02-24T23:58:38.862Z,5.54
